METAR AND TAF INFORMATION
METAR FOR EHWO
ADDS - METARS form results

(1100 UTC 25 May 2019)
Data provider http://aviationweather.gov/metar/data/
 
METAR text: EHWO 251055Z AUTO VRB01KT 9999 BKN013 OVC015 14/11 Q1018 GRN
Conditions at: EHWO (WOENSDRECHT RNLA, NL) observed 1055 UTC 25 May 2019
Temperature: 14.0°C (57°F)
Dewpoint: 11.0°C (52°F) [RH = 82%]
Pressure (altimeter): 30.06 inches Hg (1018.0 mb)
Winds: variable direction winds at 1 MPH (1 knots; 0.5 m/s)
Visibility: 6 or more miles (10+ km)
Ceiling: 1300 feet AGL
Clouds: broken clouds at 1300 feet AGL
overcast cloud deck at 1500 feet AGL
Weather: no significant weather observed at this time

METAR text: EHWO 251025Z AUTO 29003KT 250V050 9999 FEW008 OVC011 13/11 Q1018 GRN
Conditions at: EHWO (WOENSDRECHT RNLA, NL) observed 1025 UTC 25 May 2019
Temperature: 13.0°C (55°F)
Dewpoint: 11.0°C (52°F) [RH = 88%]
Pressure (altimeter): 30.06 inches Hg (1018.0 mb)
Winds: from the WNW (290 degrees) at 3 MPH (3 knots; 1.5 m/s)
Visibility: 6 or more miles (10+ km)
Ceiling: 1100 feet AGL
Clouds: few clouds at 800 feet AGL
overcast cloud deck at 1100 feet AGL
Weather: no significant weather observed at this time

 AIRPORT MAP

 RUNWAY INFORMATION
Runway 07 Runway length 7996 ft Runway width 148 ft
Runway elevation 39 ft Runway displaced threshold 0 ft Runway heading 69
Runway 25 Runway length 7996 ft Runway width 148 ft
Runway elevation 63 ft Runway displaced threshold 0 ft Runway heading 249

 AIRPORT FREQUENCIES
Type APP Name RAPCON WES Frequency 123.575 MHZ
Type ARR Name ARRIVAL Frequency 123.575 MHZ
Type TWR Name TWR Frequency 118.5 MHZ

 AIRPORT NEAR NAVIGATION AIDS
Type TACAN Name Woensdrecht Frequency 115000 KHZ